sensor_id;sensor_type;location;lat;lon;timestamp;pressure;altitude;pressure_sealevel;temperature;humidity
59971;BME280;45825;45.434;9.116;2022-08-03T00:01:48;100374.16;;;27.91;44.46
59971;BME280;45825;45.434;9.116;2022-08-03T00:04:14;100369.75;;;27.83;44.46
59971;BME280;45825;45.434;9.116;2022-08-03T00:06:39;100369.75;;;27.83;44.74
59971;BME280;45825;45.434;9.116;2022-08-03T00:09:04;100367.91;;;27.83;44.68
59971;BME280;45825;45.434;9.116;2022-08-03T00:11:30;100371.81;;;27.81;44.97
59971;BME280;45825;45.434;9.116;2022-08-03T00:13:55;100366.59;;;27.79;44.93
59971;BME280;45825;45.434;9.116;2022-08-03T00:16:20;100366.81;;;27.78;44.71
59971;BME280;45825;45.434;9.116;2022-08-03T00:18:46;100372.41;;;27.76;45.04
59971;BME280;45825;45.434;9.116;2022-08-03T00:21:11;100367.59;;;27.71;44.94
59971;BME280;45825;45.434;9.116;2022-08-03T00:23:37;100361.16;;;27.72;44.89
59971;BME280;45825;45.434;9.116;2022-08-03T00:26:02;100358.66;;;27.71;44.77
59971;BME280;45825;45.434;9.116;2022-08-03T00:28:28;100364.53;;;27.74;44.90
59971;BME280;45825;45.434;9.116;2022-08-03T00:30:54;100357.69;;;27.79;44.54
59971;BME280;45825;45.434;9.116;2022-08-03T00:33:22;100361.16;;;27.72;44.40
59971;BME280;45825;45.434;9.116;2022-08-03T00:35:47;100363.03;;;27.72;44.86
59971;BME280;45825;45.434;9.116;2022-08-03T00:38:13;100359.47;;;27.71;44.96
59971;BME280;45825;45.434;9.116;2022-08-03T00:40:39;100354.28;;;27.70;44.74
59971;BME280;45825;45.434;9.116;2022-08-03T00:43:06;100346.38;;;27.68;44.57
59971;BME280;45825;45.434;9.116;2022-08-03T00:45:34;100352.81;;;27.67;44.98
59971;BME280;45825;45.434;9.116;2022-08-03T00:48:00;100345.75;;;27.66;45.05
59971;BME280;45825;45.434;9.116;2022-08-03T00:50:28;100346.78;;;27.65;44.75
59971;BME280;45825;45.434;9.116;2022-08-03T00:52:56;100348.44;;;27.66;45.04
59971;BME280;45825;45.434;9.116;2022-08-03T00:55:22;100346.56;;;27.67;44.82
59971;BME280;45825;45.434;9.116;2022-08-03T00:57:48;100339.31;;;27.67;44.91
59971;BME280;45825;45.434;9.116;2022-08-03T01:00:17;100341.75;;;27.62;45.01
59971;BME280;45825;45.434;9.116;2022-08-03T01:02:42;100338.63;;;27.58;45.31
59971;BME280;45825;45.434;9.116;2022-08-03T01:05:08;100339.63;;;27.57;44.97
59971;BME280;45825;45.434;9.116;2022-08-03T01:10:05;100341.31;;;27.58;45.07
59971;BME280;45825;45.434;9.116;2022-08-03T01:15:28;100339.53;;;27.51;45.22
59971;BME280;45825;45.434;9.116;2022-08-03T01:20:34;100340.56;;;27.50;45.30
59971;BME280;45825;45.434;9.116;2022-08-03T01:31:31;100347.19;;;27.47;45.31
59971;BME280;45825;45.434;9.116;2022-08-03T01:34:02;100343.03;;;27.44;45.34
59971;BME280;45825;45.434;9.116;2022-08-03T01:36:37;100342.00;;;27.45;45.41
59971;BME280;45825;45.434;9.116;2022-08-03T01:39:04;100346.50;;;27.38;45.45
59971;BME280;45825;45.434;9.116;2022-08-03T01:41:38;100340.47;;;27.36;45.46
59971;BME280;45825;45.434;9.116;2022-08-03T01:44:08;100336.56;;;27.39;45.28
59971;BME280;45825;45.434;9.116;2022-08-03T01:46:35;100331.34;;;27.37;45.36
59971;BME280;45825;45.434;9.116;2022-08-03T01:49:01;100345.03;;;27.36;45.62
59971;BME280;45825;45.434;9.116;2022-08-03T01:51:27;100333.41;;;27.35;45.75
59971;BME280;45825;45.434;9.116;2022-08-03T01:53:53;100337.59;;;27.38;45.56
59971;BME280;45825;45.434;9.116;2022-08-03T01:56:21;100335.66;;;27.31;45.61
59971;BME280;45825;45.434;9.116;2022-08-03T01:58:49;100335.00;;;27.29;45.72
59971;BME280;45825;45.434;9.116;2022-08-03T02:01:16;100328.59;;;27.30;46.01
59971;BME280;45825;45.434;9.116;2022-08-03T02:03:44;100330.66;;;27.28;45.79
59971;BME280;45825;45.434;9.116;2022-08-03T02:06:11;100331.47;;;27.29;45.55
59971;BME280;45825;45.434;9.116;2022-08-03T02:08:38;100336.22;;;27.27;46.11
59971;BME280;45825;45.434;9.116;2022-08-03T02:11:05;100339.34;;;27.24;45.97
59971;BME280;45825;45.434;9.116;2022-08-03T02:13:33;100341.00;;;27.25;46.02
59971;BME280;45825;45.434;9.116;2022-08-03T02:16:01;100336.41;;;27.25;45.55
59971;BME280;45825;45.434;9.116;2022-08-03T02:18:29;100334.09;;;27.22;46.08
59971;BME280;45825;45.434;9.116;2022-08-03T02:20:55;100336.00;;;27.22;45.83
59971;BME280;45825;45.434;9.116;2022-08-03T02:23:21;100336.00;;;27.22;45.70
59971;BME280;45825;45.434;9.116;2022-08-03T02:25:51;100339.06;;;27.18;45.79
59971;BME280;45825;45.434;9.116;2022-08-03T02:28:19;100337.38;;;27.17;45.98
59971;BME280;45825;45.434;9.116;2022-08-03T02:30:50;100335.72;;;27.16;46.05
59971;BME280;45825;45.434;9.116;2022-08-03T02:33:21;100331.16;;;27.17;45.95
59971;BME280;45825;45.434;9.116;2022-08-03T02:35:48;100327.84;;;27.15;45.88
59971;BME280;45825;45.434;9.116;2022-08-03T02:38:15;100322.63;;;27.13;46.35
59971;BME280;45825;45.434;9.116;2022-08-03T02:40:43;100332.31;;;27.08;46.03
59971;BME280;45825;45.434;9.116;2022-08-03T02:43:17;100328.13;;;27.05;46.31
59971;BME280;45825;45.434;9.116;2022-08-03T02:45:46;100338.75;;;27.07;46.66
59971;BME280;45825;45.434;9.116;2022-08-03T02:48:16;100331.69;;;27.05;46.22
59971;BME280;45825;45.434;9.116;2022-08-03T02:50:43;100331.03;;;27.03;46.18
59971;BME280;45825;45.434;9.116;2022-08-03T02:53:10;100322.50;;;27.00;46.93
59971;BME280;45825;45.434;9.116;2022-08-03T02:55:38;100327.44;;;26.96;46.57
59971;BME280;45825;45.434;9.116;2022-08-03T02:58:05;100329.50;;;26.94;47.02
59971;BME280;45825;45.434;9.116;2022-08-03T03:00:32;100329.28;;;26.96;47.14
59971;BME280;45825;45.434;9.116;2022-08-03T03:03:01;100322.41;;;26.93;46.71
59971;BME280;45825;45.434;9.116;2022-08-03T03:05:29;100329.50;;;26.94;46.95
59971;BME280;45825;45.434;9.116;2022-08-03T03:07:55;100327.69;;;27.01;46.88
59971;BME280;45825;45.434;9.116;2022-08-03T03:10:21;100326.34;;;26.90;47.19
59971;BME280;45825;45.434;9.116;2022-08-03T03:12:49;100333.59;;;26.90;46.97
59971;BME280;45825;45.434;9.116;2022-08-03T03:15:16;100325.84;;;26.87;46.98
59971;BME280;45825;45.434;9.116;2022-08-03T03:17:42;100325.00;;;26.86;47.16
59971;BME280;45825;45.434;9.116;2022-08-03T03:20:08;100328.72;;;26.85;47.30
59971;BME280;45825;45.434;9.116;2022-08-03T03:22:34;100330.97;;;26.82;47.22
59971;BME280;45825;45.434;9.116;2022-08-03T03:25:01;100333.25;;;26.78;47.35
59971;BME280;45825;45.434;9.116;2022-08-03T03:27:26;100336.50;;;26.73;47.59
59971;BME280;45825;45.434;9.116;2022-08-03T03:29:52;100335.25;;;26.76;47.35
59971;BME280;45825;45.434;9.116;2022-08-03T03:32:18;100336.28;;;26.75;47.19
59971;BME280;45825;45.434;9.116;2022-08-03T03:34:43;100333.41;;;26.76;47.72
59971;BME280;45825;45.434;9.116;2022-08-03T03:37:09;100343.38;;;26.76;47.62
59971;BME280;45825;45.434;9.116;2022-08-03T03:39:35;100346.44;;;26.73;47.80
59971;BME280;45825;45.434;9.116;2022-08-03T03:42:01;100343.69;;;26.66;48.12
59971;BME280;45825;45.434;9.116;2022-08-03T03:44:27;100343.03;;;26.64;48.16
59971;BME280;45825;45.434;9.116;2022-08-03T03:46:54;100348.44;;;26.64;48.02
59971;BME280;45825;45.434;9.116;2022-08-03T03:49:19;100345.09;;;26.62;48.04
59971;BME280;45825;45.434;9.116;2022-08-03T03:51:45;100343.84;;;26.64;47.86
59971;BME280;45825;45.434;9.116;2022-08-03T03:54:10;100348.22;;;26.66;47.87
59971;BME280;45825;45.434;9.116;2022-08-03T03:56:36;100356.91;;;26.61;48.35
59971;BME280;45825;45.434;9.116;2022-08-03T03:59:01;100358.03;;;26.52;48.55
59971;BME280;45825;45.434;9.116;2022-08-03T04:01:27;100355.97;;;26.54;48.29
59971;BME280;45825;45.434;9.116;2022-08-03T04:03:52;100355.13;;;26.53;48.66
59971;BME280;45825;45.434;9.116;2022-08-03T04:06:18;100355.59;;;26.57;48.63
59971;BME280;45825;45.434;9.116;2022-08-03T04:09:02;100358.75;;;26.60;48.41
59971;BME280;45825;45.434;9.116;2022-08-03T04:11:50;100359.31;;;26.56;48.67
59971;BME280;45825;45.434;9.116;2022-08-03T04:14:27;100357.91;;;26.60;48.16
59971;BME280;45825;45.434;9.116;2022-08-03T04:16:55;100359.16;;;26.57;48.18
59971;BME280;45825;45.434;9.116;2022-08-03T04:19:29;100355.59;;;26.57;48.62
59971;BME280;45825;45.434;9.116;2022-08-03T04:22:03;100354.56;;;26.58;48.63
59971;BME280;45825;45.434;9.116;2022-08-03T04:24:33;100358.94;;;26.59;48.70
59971;BME280;45825;45.434;9.116;2022-08-03T04:27:02;100363.69;;;26.57;48.63
59971;BME280;45825;45.434;9.116;2022-08-03T04:29:29;100362.66;;;26.58;48.82
59971;BME280;45825;45.434;9.116;2022-08-03T04:31:58;100361.94;;;26.49;48.98
59971;BME280;45825;45.434;9.116;2022-08-03T04:34:24;100362.41;;;26.53;48.68
59971;BME280;45825;45.434;9.116;2022-08-03T04:36:52;100358.69;;;26.54;48.65
59971;BME280;45825;45.434;9.116;2022-08-03T04:39:25;100370.97;;;26.56;48.86
59971;BME280;45825;45.434;9.116;2022-08-03T04:41:53;100366.38;;;26.57;48.81
59971;BME280;45825;45.434;9.116;2022-08-03T04:44:20;100367.88;;;26.59;49.26
59971;BME280;45825;45.434;9.116;2022-08-03T04:46:48;100368.34;;;26.63;49.03
59971;BME280;45825;45.434;9.116;2022-08-03T04:49:13;100376.06;;;26.66;48.46
59971;BME280;45825;45.434;9.116;2022-08-03T04:51:39;100378.94;;;26.64;48.84
59971;BME280;45825;45.434;9.116;2022-08-03T04:54:05;100382.31;;;26.67;49.12
59971;BME280;45825;45.434;9.116;2022-08-03T04:56:32;100382.47;;;26.65;48.62
59971;BME280;45825;45.434;9.116;2022-08-03T04:58:58;100386.38;;;26.62;49.26
59971;BME280;45825;45.434;9.116;2022-08-03T05:01:23;100387.31;;;26.70;49.46
59971;BME280;45825;45.434;9.116;2022-08-03T05:03:48;100386.47;;;26.69;49.58
59971;BME280;45825;45.434;9.116;2022-08-03T05:06:14;100393.34;;;26.72;49.59
59971;BME280;45825;45.434;9.116;2022-08-03T05:08:39;100386.66;;;26.68;49.60
59971;BME280;45825;45.434;9.116;2022-08-03T05:11:05;100390.47;;;26.73;49.65
59971;BME280;45825;45.434;9.116;2022-08-03T05:13:30;100390.72;;;26.78;49.87
59971;BME280;45825;45.434;9.116;2022-08-03T05:15:55;100387.47;;;26.83;49.22
59971;BME280;45825;45.434;9.116;2022-08-03T05:18:21;100388.94;;;26.86;49.07
59971;BME280;45825;45.434;9.116;2022-08-03T05:20:46;100391.75;;;26.92;48.96
59971;BME280;45825;45.434;9.116;2022-08-03T05:23:12;100394.44;;;26.92;48.61
59971;BME280;45825;45.434;9.116;2022-08-03T05:25:37;100399.69;;;26.94;48.56
59971;BME280;45825;45.434;9.116;2022-08-03T05:28:02;100403.00;;;26.96;48.91
59971;BME280;45825;45.434;9.116;2022-08-03T05:30:28;100399.94;;;26.99;48.93
59971;BME280;45825;45.434;9.116;2022-08-03T05:32:53;100408.09;;;27.06;48.52
59971;BME280;45825;45.434;9.116;2022-08-03T05:35:18;100406.88;;;27.09;48.67
59971;BME280;45825;45.434;9.116;2022-08-03T05:37:44;100406.03;;;27.08;48.28
59971;BME280;45825;45.434;9.116;2022-08-03T05:40:09;100405.38;;;27.06;48.70
59971;BME280;45825;45.434;9.116;2022-08-03T05:42:38;100411.63;;;27.07;49.06
59971;BME280;45825;45.434;9.116;2022-08-03T05:45:04;100410.03;;;27.12;48.60
59971;BME280;45825;45.434;9.116;2022-08-03T05:47:43;100413.00;;;27.17;48.61
59971;BME280;45825;45.434;9.116;2022-08-03T05:50:10;100400.00;;;27.28;48.68
59971;BME280;45825;45.434;9.116;2022-08-03T05:52:36;100402.53;;;27.29;48.54
59971;BME280;45825;45.434;9.116;2022-08-03T05:55:01;100402.41;;;27.38;48.12
59971;BME280;45825;45.434;9.116;2022-08-03T05:57:27;100404.38;;;27.51;52.04
59971;BME280;45825;45.434;9.116;2022-08-03T05:59:52;100406.00;;;27.67;49.67
59971;BME280;45825;45.434;9.116;2022-08-03T06:02:17;100405.41;;;27.71;48.93
59971;BME280;45825;45.434;9.116;2022-08-03T06:04:42;100406.50;;;27.77;48.59
59971;BME280;45825;45.434;9.116;2022-08-03T06:07:08;100406.38;;;27.85;47.68
59971;BME280;45825;45.434;9.116;2022-08-03T06:09:33;100406.06;;;27.73;46.42
59971;BME280;45825;45.434;9.116;2022-08-03T06:11:58;100403.34;;;27.73;47.42
59971;BME280;45825;45.434;9.116;2022-08-03T06:14:24;100407.22;;;27.86;47.27
59971;BME280;45825;45.434;9.116;2022-08-03T06:16:49;100411.00;;;27.92;46.37
59971;BME280;45825;45.434;9.116;2022-08-03T06:19:14;100416.47;;;27.98;46.59
59971;BME280;45825;45.434;9.116;2022-08-03T06:21:40;100412.09;;;27.97;46.96
59971;BME280;45825;45.434;9.116;2022-08-03T06:24:05;100416.34;;;27.85;46.31
59971;BME280;45825;45.434;9.116;2022-08-03T06:26:31;100409.06;;;27.85;46.96
59971;BME280;45825;45.434;9.116;2022-08-03T06:28:56;100419.25;;;27.83;45.70
59971;BME280;45825;45.434;9.116;2022-08-03T06:31:23;100422.00;;;27.90;47.25
59971;BME280;45825;45.434;9.116;2022-08-03T06:33:51;100417.81;;;27.87;46.33
59971;BME280;45825;45.434;9.116;2022-08-03T06:36:16;100423.63;;;27.84;46.71
59971;BME280;45825;45.434;9.116;2022-08-03T06:38:41;100427.13;;;27.85;46.41
59971;BME280;45825;45.434;9.116;2022-08-03T06:41:07;100426.84;;;27.73;46.48
59971;BME280;45825;45.434;9.116;2022-08-03T06:43:32;100436.69;;;27.81;48.13
59971;BME280;45825;45.434;9.116;2022-08-03T06:46:01;100436.34;;;27.91;47.82
59971;BME280;45825;45.434;9.116;2022-08-03T06:48:27;100434.66;;;27.89;47.20
59971;BME280;45825;45.434;9.116;2022-08-03T06:50:52;100438.03;;;27.92;47.36
59971;BME280;45825;45.434;9.116;2022-08-03T06:53:17;100434.75;;;27.96;46.21
59971;BME280;45825;45.434;9.116;2022-08-03T06:55:43;100433.34;;;28.07;47.09
59971;BME280;45825;45.434;9.116;2022-08-03T06:58:08;100433.03;;;27.95;45.70
59971;BME280;45825;45.434;9.116;2022-08-03T07:00:33;100446.44;;;28.03;46.21
59971;BME280;45825;45.434;9.116;2022-08-03T07:02:59;100438.75;;;28.07;46.24
59971;BME280;45825;45.434;9.116;2022-08-03T07:05:24;100439.66;;;28.14;45.95
59971;BME280;45825;45.434;9.116;2022-08-03T07:07:53;100446.72;;;28.15;45.84
59971;BME280;45825;45.434;9.116;2022-08-03T07:10:19;100446.03;;;28.07;46.56
59971;BME280;45825;45.434;9.116;2022-08-03T07:12:45;100445.84;;;28.08;46.70
59971;BME280;45825;45.434;9.116;2022-08-03T07:15:11;100447.91;;;28.06;46.44
59971;BME280;45825;45.434;9.116;2022-08-03T07:17:37;100446.28;;;28.12;47.62
59971;BME280;45825;45.434;9.116;2022-08-03T07:20:05;100454.22;;;28.13;45.85
59971;BME280;45825;45.434;9.116;2022-08-03T07:22:31;100451.59;;;28.20;45.93
59971;BME280;45825;45.434;9.116;2022-08-03T07:24:57;100451.28;;;28.15;46.59
59971;BME280;45825;45.434;9.116;2022-08-03T07:27:22;100453.94;;;28.08;46.10
59971;BME280;45825;45.434;9.116;2022-08-03T07:29:47;100456.50;;;28.16;46.77
59971;BME280;45825;45.434;9.116;2022-08-03T07:32:13;100459.69;;;28.20;47.03
59971;BME280;45825;45.434;9.116;2022-08-03T07:34:38;100461.56;;;28.20;46.31
59971;BME280;45825;45.434;9.116;2022-08-03T07:37:04;100460.97;;;28.24;46.47
59971;BME280;45825;45.434;9.116;2022-08-03T07:39:29;100459.97;;;28.32;46.98
59971;BME280;45825;45.434;9.116;2022-08-03T07:41:54;100468.34;;;28.37;45.88
59971;BME280;45825;45.434;9.116;2022-08-03T07:44:20;100462.84;;;28.24;45.89
59971;BME280;45825;45.434;9.116;2022-08-03T07:46:45;100465.72;;;28.22;45.62
59971;BME280;45825;45.434;9.116;2022-08-03T07:49:11;100464.47;;;28.18;46.09
59971;BME280;45825;45.434;9.116;2022-08-03T07:51:37;100456.00;;;28.28;46.48
59971;BME280;45825;45.434;9.116;2022-08-03T07:54:03;100455.63;;;28.38;45.58
59971;BME280;45825;45.434;9.116;2022-08-03T07:56:28;100457.13;;;28.40;46.53
59971;BME280;45825;45.434;9.116;2022-08-03T07:58:54;100455.03;;;28.42;45.74
59971;BME280;45825;45.434;9.116;2022-08-03T08:01:20;100457.41;;;28.52;45.61
59971;BME280;45825;45.434;9.116;2022-08-03T08:03:46;100454.91;;;28.57;45.74
59971;BME280;45825;45.434;9.116;2022-08-03T08:06:12;100460.81;;;28.68;45.13
59971;BME280;45825;45.434;9.116;2022-08-03T08:08:38;100452.66;;;28.61;44.95
59971;BME280;45825;45.434;9.116;2022-08-03T08:11:04;100451.00;;;28.67;46.24
59971;BME280;45825;45.434;9.116;2022-08-03T08:13:30;100457.50;;;28.72;46.24
59971;BME280;45825;45.434;9.116;2022-08-03T08:15:55;100459.75;;;28.69;43.00
59971;BME280;45825;45.434;9.116;2022-08-03T08:18:21;100455.72;;;28.51;43.07
59971;BME280;45825;45.434;9.116;2022-08-03T08:20:46;100447.72;;;28.71;42.51
59971;BME280;45825;45.434;9.116;2022-08-03T08:23:11;100451.63;;;28.69;42.72
59971;BME280;45825;45.434;9.116;2022-08-03T08:25:37;100458.75;;;28.77;42.80
59971;BME280;45825;45.434;9.116;2022-08-03T08:28:02;100460.69;;;28.83;43.18
59971;BME280;45825;45.434;9.116;2022-08-03T08:30:30;100460.38;;;28.71;42.67
59971;BME280;45825;45.434;9.116;2022-08-03T08:32:55;100462.19;;;28.92;42.56
59971;BME280;45825;45.434;9.116;2022-08-03T08:35:22;100462.66;;;29.03;42.21
59971;BME280;45825;45.434;9.116;2022-08-03T08:37:47;100461.63;;;29.04;42.97
59971;BME280;45825;45.434;9.116;2022-08-03T08:40:12;100459.50;;;28.99;42.14
59971;BME280;45825;45.434;9.116;2022-08-03T08:42:39;100463.25;;;28.91;42.03
59971;BME280;45825;45.434;9.116;2022-08-03T08:45:05;100469.88;;;28.89;42.10
59971;BME280;45825;45.434;9.116;2022-08-03T08:47:35;100460.53;;;28.91;42.34
59971;BME280;45825;45.434;9.116;2022-08-03T08:50:01;100457.84;;;28.98;42.78
59971;BME280;45825;45.434;9.116;2022-08-03T08:52:28;100458.94;;;29.17;42.80
59971;BME280;45825;45.434;9.116;2022-08-03T08:54:55;100462.34;;;29.33;42.46
59971;BME280;45825;45.434;9.116;2022-08-03T08:57:25;100463.78;;;29.42;42.25
59971;BME280;45825;45.434;9.116;2022-08-03T08:59:53;100463.84;;;29.49;42.50
59971;BME280;45825;45.434;9.116;2022-08-03T09:02:21;100458.22;;;29.57;41.86
59971;BME280;45825;45.434;9.116;2022-08-03T09:04:47;100463.63;;;29.50;40.87
59971;BME280;45825;45.434;9.116;2022-08-03T09:07:13;100461.97;;;29.63;40.79
59971;BME280;45825;45.434;9.116;2022-08-03T09:09:38;100458.03;;;29.72;40.72
59971;BME280;45825;45.434;9.116;2022-08-03T09:12:04;100462.44;;;29.87;39.97
59971;BME280;45825;45.434;9.116;2022-08-03T09:14:29;100469.28;;;29.89;40.78
59971;BME280;45825;45.434;9.116;2022-08-03T09:16:59;100460.31;;;30.02;39.90
59971;BME280;45825;45.434;9.116;2022-08-03T09:19:26;100461.41;;;30.08;40.39
59971;BME280;45825;45.434;9.116;2022-08-03T09:22:15;100456.38;;;30.11;40.09
59971;BME280;45825;45.434;9.116;2022-08-03T09:25:00;100453.44;;;30.27;40.35
59971;BME280;45825;45.434;9.116;2022-08-03T09:27:27;100452.19;;;30.36;39.84
59971;BME280;45825;45.434;9.116;2022-08-03T09:29:53;100451.72;;;30.46;39.91
59971;BME280;45825;45.434;9.116;2022-08-03T09:32:20;100451.91;;;30.58;39.40
59971;BME280;45825;45.434;9.116;2022-08-03T09:34:48;100453.38;;;30.53;39.14
59971;BME280;45825;45.434;9.116;2022-08-03T09:37:15;100456.69;;;30.56;39.44
59971;BME280;45825;45.434;9.116;2022-08-03T09:39:41;100456.09;;;30.53;39.32
59971;BME280;45825;45.434;9.116;2022-08-03T09:42:17;100455.03;;;30.68;39.76
59971;BME280;45825;45.434;9.116;2022-08-03T09:44:45;100454.41;;;30.73;39.46
59971;BME280;45825;45.434;9.116;2022-08-03T09:47:13;100458.72;;;30.87;39.25
59971;BME280;45825;45.434;9.116;2022-08-03T09:49:40;100457.41;;;31.03;38.82
59971;BME280;45825;45.434;9.116;2022-08-03T09:52:14;100452.53;;;31.12;39.16
59971;BME280;45825;45.434;9.116;2022-08-03T09:54:41;100456.25;;;31.25;39.15
59971;BME280;45825;45.434;9.116;2022-08-03T09:57:06;100453.72;;;31.30;38.50
59971;BME280;45825;45.434;9.116;2022-08-03T09:59:33;100462.19;;;31.08;38.48
59971;BME280;45825;45.434;9.116;2022-08-03T10:01:58;100454.44;;;31.12;38.44
59971;BME280;45825;45.434;9.116;2022-08-03T10:04:27;100455.44;;;31.17;37.88
59971;BME280;45825;45.434;9.116;2022-08-03T10:07:09;100442.22;;;31.21;37.60
59971;BME280;45825;45.434;9.116;2022-08-03T10:09:35;100448.50;;;31.28;37.74
59971;BME280;45825;45.434;9.116;2022-08-03T10:12:12;100433.03;;;31.61;37.66
59971;BME280;45825;45.434;9.116;2022-08-03T10:14:39;100434.72;;;31.87;37.98
59971;BME280;45825;45.434;9.116;2022-08-03T10:17:06;100430.75;;;32.09;36.88
59971;BME280;45825;45.434;9.116;2022-08-03T10:19:32;100424.66;;;32.32;37.02
59971;BME280;45825;45.434;9.116;2022-08-03T10:22:02;100425.81;;;32.43;36.04
59971;BME280;45825;45.434;9.116;2022-08-03T10:24:29;100420.38;;;32.61;35.49
59971;BME280;45825;45.434;9.116;2022-08-03T10:27:03;100421.25;;;32.93;34.63
59971;BME280;45825;45.434;9.116;2022-08-03T10:29:36;100408.47;;;33.36;34.04
59971;BME280;45825;45.434;9.116;2022-08-03T10:32:03;100417.31;;;33.74;34.07
59971;BME280;45825;45.434;9.116;2022-08-03T10:34:34;100408.31;;;33.73;33.40
59971;BME280;45825;45.434;9.116;2022-08-03T10:37:07;100400.13;;;33.97;33.08
59971;BME280;45825;45.434;9.116;2022-08-03T10:39:33;100406.91;;;33.82;31.98
59971;BME280;45825;45.434;9.116;2022-08-03T10:42:00;100396.94;;;33.88;31.53
59971;BME280;45825;45.434;9.116;2022-08-03T10:44:31;100394.78;;;34.26;31.59
59971;BME280;45825;45.434;9.116;2022-08-03T10:46:57;100398.91;;;34.81;31.78
59971;BME280;45825;45.434;9.116;2022-08-03T10:49:23;100389.56;;;35.06;31.12
59971;BME280;45825;45.434;9.116;2022-08-03T10:51:49;100383.06;;;34.95;30.70
59971;BME280;45825;45.434;9.116;2022-08-03T10:57:01;100381.81;;;35.03;29.80
59971;BME280;45825;45.434;9.116;2022-08-03T11:02:13;100381.31;;;35.35;29.31
59971;BME280;45825;45.434;9.116;2022-08-03T11:04:39;100383.88;;;35.76;29.40
59971;BME280;45825;45.434;9.116;2022-08-03T11:09:41;100370.47;;;35.97;28.78
59971;BME280;45825;45.434;9.116;2022-08-03T11:12:27;100371.34;;;36.42;29.52
59971;BME280;45825;45.434;9.116;2022-08-03T11:14:54;100359.75;;;36.80;29.23
59971;BME280;45825;45.434;9.116;2022-08-03T11:17:20;100360.44;;;36.97;28.79
59971;BME280;45825;45.434;9.116;2022-08-03T11:19:48;100360.19;;;36.49;27.99
59971;BME280;45825;45.434;9.116;2022-08-03T11:22:14;100358.25;;;36.99;28.70
59971;BME280;45825;45.434;9.116;2022-08-03T11:40:39;100354.03;;;37.95;28.00
59971;BME280;45825;45.434;9.116;2022-08-03T11:43:48;100352.38;;;37.88;26.29
59971;BME280;45825;45.434;9.116;2022-08-03T11:46:09;100349.66;;;37.13;26.52
59971;BME280;45825;45.434;9.116;2022-08-03T11:48:47;100342.97;;;37.74;26.57
59971;BME280;45825;45.434;9.116;2022-08-03T11:51:21;100339.16;;;37.80;27.37
59971;BME280;45825;45.434;9.116;2022-08-03T11:53:51;100347.69;;;37.84;27.40
59971;BME280;45825;45.434;9.116;2022-08-03T11:56:16;100340.50;;;37.78;27.42
59971;BME280;45825;45.434;9.116;2022-08-03T11:58:49;100343.38;;;37.55;26.87
59971;BME280;45825;45.434;9.116;2022-08-03T12:01:18;100333.94;;;37.36;27.19
59971;BME280;45825;45.434;9.116;2022-08-03T12:03:43;100332.22;;;37.29;26.87
59971;BME280;45825;45.434;9.116;2022-08-03T12:06:10;100337.91;;;36.62;27.25
59971;BME280;45825;45.434;9.116;2022-08-03T12:08:36;100330.31;;;37.30;26.52
59971;BME280;45825;45.434;9.116;2022-08-03T12:11:03;100322.03;;;37.25;26.94
59971;BME280;45825;45.434;9.116;2022-08-03T12:13:47;100324.94;;;36.80;26.99
59971;BME280;45825;45.434;9.116;2022-08-03T12:18:43;100325.97;;;36.74;26.87
59971;BME280;45825;45.434;9.116;2022-08-03T12:21:10;100315.63;;;37.09;27.24
59971;BME280;45825;45.434;9.116;2022-08-03T12:23:37;100307.22;;;37.58;26.99
59971;BME280;45825;45.434;9.116;2022-08-03T12:26:08;100315.41;;;38.01;26.61
59971;BME280;45825;45.434;9.116;2022-08-03T12:28:35;100317.56;;;37.94;26.02
59971;BME280;45825;45.434;9.116;2022-08-03T12:31:03;100303.72;;;38.32;26.49
59971;BME280;45825;45.434;9.116;2022-08-03T12:33:30;100305.19;;;37.49;26.06
59971;BME280;45825;45.434;9.116;2022-08-03T12:36:06;100306.66;;;37.18;26.48
59971;BME280;45825;45.434;9.116;2022-08-03T12:38:34;100305.59;;;37.63;27.35
59971;BME280;45825;45.434;9.116;2022-08-03T12:41:08;100301.50;;;37.65;27.06
59971;BME280;45825;45.434;9.116;2022-08-03T12:43:49;100297.84;;;37.16;26.78
59971;BME280;45825;45.434;9.116;2022-08-03T12:46:16;100300.31;;;37.13;26.37
59971;BME280;45825;45.434;9.116;2022-08-03T12:49:02;100292.75;;;36.98;26.76
59971;BME280;45825;45.434;9.116;2022-08-03T12:51:30;100296.03;;;37.32;26.44
59971;BME280;45825;45.434;9.116;2022-08-03T12:53:57;100294.22;;;37.49;26.69
59971;BME280;45825;45.434;9.116;2022-08-03T12:56:23;100288.81;;;37.54;26.08
59971;BME280;45825;45.434;9.116;2022-08-03T12:58:48;100290.81;;;37.74;26.30
59971;BME280;45825;45.434;9.116;2022-08-03T13:01:17;100301.25;;;37.72;25.89
59971;BME280;45825;45.434;9.116;2022-08-03T13:03:44;100290.50;;;37.65;25.77
59971;BME280;45825;45.434;9.116;2022-08-03T13:06:15;100286.13;;;37.64;26.40
59971;BME280;45825;45.434;9.116;2022-08-03T13:08:42;100286.13;;;37.64;26.74
59971;BME280;45825;45.434;9.116;2022-08-03T13:11:25;100280.50;;;37.43;27.01
59971;BME280;45825;45.434;9.116;2022-08-03T13:13:52;100278.78;;;36.99;26.04
59971;BME280;45825;45.434;9.116;2022-08-03T13:16:18;100285.94;;;36.73;25.60
59971;BME280;45825;45.434;9.116;2022-08-03T13:18:43;100278.22;;;36.97;26.80
59971;BME280;45825;45.434;9.116;2022-08-03T13:21:11;100280.53;;;37.11;26.37
59971;BME280;45825;45.434;9.116;2022-08-03T13:23:37;100278.66;;;37.16;26.20
59971;BME280;45825;45.434;9.116;2022-08-03T13:26:02;100274.91;;;37.28;26.45
59971;BME280;45825;45.434;9.116;2022-08-03T13:28:27;100276.53;;;36.91;26.09
59971;BME280;45825;45.434;9.116;2022-08-03T13:30:53;100272.88;;;36.53;27.54
59971;BME280;45825;45.434;9.116;2022-08-03T13:33:18;100266.31;;;36.54;27.27
59971;BME280;45825;45.434;9.116;2022-08-03T13:35:44;100267.84;;;36.44;26.88